sensor_id;sensor_type;location;lat;lon;timestamp;P1;durP1;ratioP1;P2;durP2;ratioP2
5684;SDS011;2865;53.114;9.130;2023-02-16T00:00:54;24.30;;;14.67;;
5684;SDS011;2865;53.114;9.130;2023-02-16T00:03:19;26.57;;;15.20;;
5684;SDS011;2865;53.114;9.130;2023-02-16T00:05:44;24.10;;;16.67;;
5684;SDS011;2865;53.114;9.130;2023-02-16T00:08:09;22.30;;;14.53;;
5684;SDS011;2865;53.114;9.130;2023-02-16T00:10:35;25.60;;;15.83;;
5684;SDS011;2865;53.114;9.130;2023-02-16T00:13:00;24.33;;;16.73;;
5684;SDS011;2865;53.114;9.130;2023-02-16T00:15:31;22.13;;;15.43;;
5684;SDS011;2865;53.114;9.130;2023-02-16T00:17:57;26.77;;;17.20;;
5684;SDS011;2865;53.114;9.130;2023-02-16T00:20:22;24.00;;;16.60;;
5684;SDS011;2865;53.114;9.130;2023-02-16T00:22:48;25.67;;;16.80;;
5684;SDS011;2865;53.114;9.130;2023-02-16T00:25:13;24.80;;;15.57;;
5684;SDS011;2865;53.114;9.130;2023-02-16T00:27:38;19.17;;;14.43;;
5684;SDS011;2865;53.114;9.130;2023-02-16T00:30:12;31.33;;;17.07;;
5684;SDS011;2865;53.114;9.130;2023-02-16T00:32:38;29.10;;;17.60;;
5684;SDS011;2865;53.114;9.130;2023-02-16T00:35:04;21.73;;;13.77;;
5684;SDS011;2865;53.114;9.130;2023-02-16T00:37:29;26.33;;;16.03;;
5684;SDS011;2865;53.114;9.130;2023-02-16T00:39:54;26.90;;;16.50;;
5684;SDS011;2865;53.114;9.130;2023-02-16T00:42:21;27.07;;;16.40;;
5684;SDS011;2865;53.114;9.130;2023-02-16T00:44:47;31.53;;;16.70;;
5684;SDS011;2865;53.114;9.130;2023-02-16T00:47:18;21.50;;;14.77;;
5684;SDS011;2865;53.114;9.130;2023-02-16T00:49:47;25.20;;;16.70;;
5684;SDS011;2865;53.114;9.130;2023-02-16T00:55:07;32.60;;;18.40;;
5684;SDS011;2865;53.114;9.130;2023-02-16T00:57:34;28.10;;;16.90;;
5684;SDS011;2865;53.114;9.130;2023-02-16T01:00:03;28.50;;;18.10;;
5684;SDS011;2865;53.114;9.130;2023-02-16T01:02:28;27.73;;;17.13;;
5684;SDS011;2865;53.114;9.130;2023-02-16T01:04:53;24.73;;;16.90;;
5684;SDS011;2865;53.114;9.130;2023-02-16T01:07:19;30.50;;;18.47;;
5684;SDS011;2865;53.114;9.130;2023-02-16T01:09:50;27.00;;;18.40;;
5684;SDS011;2865;53.114;9.130;2023-02-16T01:12:21;32.30;;;18.67;;
5684;SDS011;2865;53.114;9.130;2023-02-16T01:14:49;28.10;;;18.27;;
5684;SDS011;2865;53.114;9.130;2023-02-16T01:17:12;30.13;;;17.20;;
5684;SDS011;2865;53.114;9.130;2023-02-16T01:19:37;30.00;;;18.77;;
5684;SDS011;2865;53.114;9.130;2023-02-16T01:22:02;28.37;;;17.67;;
5684;SDS011;2865;53.114;9.130;2023-02-16T01:24:28;29.53;;;18.70;;
5684;SDS011;2865;53.114;9.130;2023-02-16T01:26:53;26.63;;;17.43;;
5684;SDS011;2865;53.114;9.130;2023-02-16T01:29:19;28.93;;;16.83;;
5684;SDS011;2865;53.114;9.130;2023-02-16T01:31:44;29.67;;;18.27;;
5684;SDS011;2865;53.114;9.130;2023-02-16T01:34:09;25.30;;;18.10;;
5684;SDS011;2865;53.114;9.130;2023-02-16T01:36:36;26.37;;;16.50;;
5684;SDS011;2865;53.114;9.130;2023-02-16T01:39:01;24.67;;;17.77;;
5684;SDS011;2865;53.114;9.130;2023-02-16T01:41:45;29.07;;;17.23;;
5684;SDS011;2865;53.114;9.130;2023-02-16T01:44:27;28.00;;;16.60;;
5684;SDS011;2865;53.114;9.130;2023-02-16T01:46:53;26.27;;;16.80;;
5684;SDS011;2865;53.114;9.130;2023-02-16T01:49:17;26.70;;;17.17;;
5684;SDS011;2865;53.114;9.130;2023-02-16T01:54:25;30.40;;;16.93;;
5684;SDS011;2865;53.114;9.130;2023-02-16T01:56:49;27.90;;;17.60;;
5684;SDS011;2865;53.114;9.130;2023-02-16T01:59:20;27.97;;;17.17;;
5684;SDS011;2865;53.114;9.130;2023-02-16T02:01:44;26.90;;;17.60;;
5684;SDS011;2865;53.114;9.130;2023-02-16T02:04:09;26.30;;;16.67;;
5684;SDS011;2865;53.114;9.130;2023-02-16T02:06:39;28.43;;;18.57;;
5684;SDS011;2865;53.114;9.130;2023-02-16T02:09:18;25.63;;;17.77;;
5684;SDS011;2865;53.114;9.130;2023-02-16T02:11:45;29.50;;;16.60;;
5684;SDS011;2865;53.114;9.130;2023-02-16T02:14:12;28.20;;;16.77;;
5684;SDS011;2865;53.114;9.130;2023-02-16T02:16:38;24.73;;;17.43;;
5684;SDS011;2865;53.114;9.130;2023-02-16T02:19:04;26.30;;;17.40;;
5684;SDS011;2865;53.114;9.130;2023-02-16T02:21:38;25.77;;;16.50;;
5684;SDS011;2865;53.114;9.130;2023-02-16T02:26:49;23.67;;;15.50;;
5684;SDS011;2865;53.114;9.130;2023-02-16T02:29:21;28.30;;;18.70;;
5684;SDS011;2865;53.114;9.130;2023-02-16T02:34:34;31.73;;;18.30;;
5684;SDS011;2865;53.114;9.130;2023-02-16T02:37:02;29.67;;;17.30;;
5684;SDS011;2865;53.114;9.130;2023-02-16T02:39:50;25.70;;;17.07;;
5684;SDS011;2865;53.114;9.130;2023-02-16T02:42:30;27.23;;;16.97;;
5684;SDS011;2865;53.114;9.130;2023-02-16T02:44:55;24.90;;;17.10;;
5684;SDS011;2865;53.114;9.130;2023-02-16T02:47:19;23.73;;;16.37;;
5684;SDS011;2865;53.114;9.130;2023-02-16T02:49:51;23.50;;;16.60;;
5684;SDS011;2865;53.114;9.130;2023-02-16T02:52:16;24.87;;;16.40;;
5684;SDS011;2865;53.114;9.130;2023-02-16T02:54:41;22.03;;;15.60;;
5684;SDS011;2865;53.114;9.130;2023-02-16T02:57:15;26.70;;;17.10;;
5684;SDS011;2865;53.114;9.130;2023-02-16T02:59:50;25.07;;;16.27;;
5684;SDS011;2865;53.114;9.130;2023-02-16T03:02:20;32.57;;;17.80;;
5684;SDS011;2865;53.114;9.130;2023-02-16T03:04:45;26.23;;;16.47;;
5684;SDS011;2865;53.114;9.130;2023-02-16T03:07:11;30.10;;;17.23;;
5684;SDS011;2865;53.114;9.130;2023-02-16T03:09:36;28.37;;;17.33;;
5684;SDS011;2865;53.114;9.130;2023-02-16T03:12:02;26.93;;;16.47;;
5684;SDS011;2865;53.114;9.130;2023-02-16T03:14:34;28.43;;;17.07;;
5684;SDS011;2865;53.114;9.130;2023-02-16T03:16:59;34.93;;;17.60;;
5684;SDS011;2865;53.114;9.130;2023-02-16T03:19:30;23.90;;;17.53;;
5684;SDS011;2865;53.114;9.130;2023-02-16T03:22:01;27.43;;;16.80;;
5684;SDS011;2865;53.114;9.130;2023-02-16T03:24:33;28.63;;;17.50;;
5684;SDS011;2865;53.114;9.130;2023-02-16T03:27:04;26.37;;;15.97;;
5684;SDS011;2865;53.114;9.130;2023-02-16T03:29:35;31.50;;;18.60;;
5684;SDS011;2865;53.114;9.130;2023-02-16T03:32:01;31.67;;;18.63;;
5684;SDS011;2865;53.114;9.130;2023-02-16T03:34:26;27.70;;;17.30;;
5684;SDS011;2865;53.114;9.130;2023-02-16T03:36:53;30.53;;;18.10;;
5684;SDS011;2865;53.114;9.130;2023-02-16T03:39:17;28.23;;;18.73;;
5684;SDS011;2865;53.114;9.130;2023-02-16T03:41:44;26.83;;;16.70;;
5684;SDS011;2865;53.114;9.130;2023-02-16T03:44:07;32.33;;;18.13;;
5684;SDS011;2865;53.114;9.130;2023-02-16T03:46:33;28.43;;;18.00;;
5684;SDS011;2865;53.114;9.130;2023-02-16T03:48:58;28.07;;;17.03;;
5684;SDS011;2865;53.114;9.130;2023-02-16T03:51:23;30.83;;;19.10;;
5684;SDS011;2865;53.114;9.130;2023-02-16T03:53:48;29.07;;;17.90;;
5684;SDS011;2865;53.114;9.130;2023-02-16T03:56:14;32.37;;;18.90;;
5684;SDS011;2865;53.114;9.130;2023-02-16T03:58:39;24.70;;;16.27;;
5684;SDS011;2865;53.114;9.130;2023-02-16T04:01:04;23.83;;;16.73;;
5684;SDS011;2865;53.114;9.130;2023-02-16T04:03:30;27.20;;;18.07;;
5684;SDS011;2865;53.114;9.130;2023-02-16T04:05:55;25.30;;;18.20;;
5684;SDS011;2865;53.114;9.130;2023-02-16T04:08:21;28.53;;;18.70;;
5684;SDS011;2865;53.114;9.130;2023-02-16T04:10:46;32.00;;;18.30;;
5684;SDS011;2865;53.114;9.130;2023-02-16T04:13:12;29.33;;;18.60;;
5684;SDS011;2865;53.114;9.130;2023-02-16T04:15:37;31.73;;;17.30;;
5684;SDS011;2865;53.114;9.130;2023-02-16T04:18:03;29.70;;;18.50;;
5684;SDS011;2865;53.114;9.130;2023-02-16T04:20:29;28.70;;;17.63;;
5684;SDS011;2865;53.114;9.130;2023-02-16T04:22:53;31.73;;;19.73;;
5684;SDS011;2865;53.114;9.130;2023-02-16T04:25:19;32.03;;;17.80;;
5684;SDS011;2865;53.114;9.130;2023-02-16T04:27:45;28.43;;;18.20;;
5684;SDS011;2865;53.114;9.130;2023-02-16T04:30:10;27.67;;;18.87;;
5684;SDS011;2865;53.114;9.130;2023-02-16T04:32:37;26.47;;;17.90;;
5684;SDS011;2865;53.114;9.130;2023-02-16T04:35:03;29.23;;;17.30;;
5684;SDS011;2865;53.114;9.130;2023-02-16T04:37:28;28.07;;;17.73;;
5684;SDS011;2865;53.114;9.130;2023-02-16T04:39:54;31.87;;;19.80;;
5684;SDS011;2865;53.114;9.130;2023-02-16T04:42:19;33.50;;;19.80;;
5684;SDS011;2865;53.114;9.130;2023-02-16T04:44:45;33.07;;;19.00;;
5684;SDS011;2865;53.114;9.130;2023-02-16T04:47:10;30.27;;;18.77;;
5684;SDS011;2865;53.114;9.130;2023-02-16T04:49:35;28.07;;;19.93;;
5684;SDS011;2865;53.114;9.130;2023-02-16T04:52:00;31.30;;;20.67;;
5684;SDS011;2865;53.114;9.130;2023-02-16T04:54:26;30.80;;;20.50;;
5684;SDS011;2865;53.114;9.130;2023-02-16T04:56:51;41.43;;;20.53;;
5684;SDS011;2865;53.114;9.130;2023-02-16T04:59:16;37.13;;;21.60;;
5684;SDS011;2865;53.114;9.130;2023-02-16T05:01:42;34.00;;;20.27;;
5684;SDS011;2865;53.114;9.130;2023-02-16T05:04:07;29.37;;;19.20;;
5684;SDS011;2865;53.114;9.130;2023-02-16T05:06:32;38.37;;;21.47;;
5684;SDS011;2865;53.114;9.130;2023-02-16T05:08:58;34.93;;;18.77;;
5684;SDS011;2865;53.114;9.130;2023-02-16T05:11:23;36.77;;;20.07;;
5684;SDS011;2865;53.114;9.130;2023-02-16T05:13:55;30.20;;;19.90;;
5684;SDS011;2865;53.114;9.130;2023-02-16T05:16:25;37.00;;;20.73;;
5684;SDS011;2865;53.114;9.130;2023-02-16T05:18:51;38.23;;;19.50;;
5684;SDS011;2865;53.114;9.130;2023-02-16T05:21:16;30.60;;;20.77;;
5684;SDS011;2865;53.114;9.130;2023-02-16T05:23:48;37.80;;;22.60;;
5684;SDS011;2865;53.114;9.130;2023-02-16T05:26:14;32.77;;;20.10;;
5684;SDS011;2865;53.114;9.130;2023-02-16T05:28:38;34.33;;;22.10;;
5684;SDS011;2865;53.114;9.130;2023-02-16T05:31:04;43.93;;;23.87;;
5684;SDS011;2865;53.114;9.130;2023-02-16T05:33:29;34.57;;;21.17;;
5684;SDS011;2865;53.114;9.130;2023-02-16T05:35:55;33.40;;;20.37;;
5684;SDS011;2865;53.114;9.130;2023-02-16T05:38:20;32.73;;;20.40;;
5684;SDS011;2865;53.114;9.130;2023-02-16T05:40:45;37.50;;;21.47;;
5684;SDS011;2865;53.114;9.130;2023-02-16T05:43:10;37.97;;;21.20;;
5684;SDS011;2865;53.114;9.130;2023-02-16T05:45:37;39.90;;;21.93;;
5684;SDS011;2865;53.114;9.130;2023-02-16T05:48:01;39.30;;;20.87;;
5684;SDS011;2865;53.114;9.130;2023-02-16T05:50:27;33.33;;;20.17;;
5684;SDS011;2865;53.114;9.130;2023-02-16T05:52:52;35.27;;;21.70;;
5684;SDS011;2865;53.114;9.130;2023-02-16T05:55:17;37.47;;;21.40;;
5684;SDS011;2865;53.114;9.130;2023-02-16T05:57:43;35.33;;;23.13;;
5684;SDS011;2865;53.114;9.130;2023-02-16T06:00:08;39.20;;;20.33;;
5684;SDS011;2865;53.114;9.130;2023-02-16T06:02:34;37.40;;;22.47;;
5684;SDS011;2865;53.114;9.130;2023-02-16T06:04:59;32.30;;;20.47;;
5684;SDS011;2865;53.114;9.130;2023-02-16T06:07:25;37.57;;;21.63;;
5684;SDS011;2865;53.114;9.130;2023-02-16T06:09:50;35.07;;;21.43;;
5684;SDS011;2865;53.114;9.130;2023-02-16T06:12:15;29.73;;;20.20;;
5684;SDS011;2865;53.114;9.130;2023-02-16T06:14:41;37.40;;;22.40;;
5684;SDS011;2865;53.114;9.130;2023-02-16T06:17:06;37.00;;;21.97;;
5684;SDS011;2865;53.114;9.130;2023-02-16T06:19:31;35.50;;;21.60;;
5684;SDS011;2865;53.114;9.130;2023-02-16T06:21:57;36.93;;;24.10;;
5684;SDS011;2865;53.114;9.130;2023-02-16T06:24:22;37.07;;;21.50;;
5684;SDS011;2865;53.114;9.130;2023-02-16T06:26:48;36.47;;;22.60;;
5684;SDS011;2865;53.114;9.130;2023-02-16T06:29:13;31.70;;;21.77;;
5684;SDS011;2865;53.114;9.130;2023-02-16T06:31:38;39.10;;;23.33;;
5684;SDS011;2865;53.114;9.130;2023-02-16T06:34:04;37.30;;;22.20;;
5684;SDS011;2865;53.114;9.130;2023-02-16T06:36:29;33.40;;;22.70;;
5684;SDS011;2865;53.114;9.130;2023-02-16T06:38:54;41.27;;;24.07;;
5684;SDS011;2865;53.114;9.130;2023-02-16T06:41:19;34.23;;;23.07;;
5684;SDS011;2865;53.114;9.130;2023-02-16T06:43:51;37.40;;;23.47;;
5684;SDS011;2865;53.114;9.130;2023-02-16T06:46:16;44.53;;;24.93;;
5684;SDS011;2865;53.114;9.130;2023-02-16T06:48:42;40.37;;;22.93;;
5684;SDS011;2865;53.114;9.130;2023-02-16T06:51:07;36.40;;;23.83;;
5684;SDS011;2865;53.114;9.130;2023-02-16T06:53:32;49.33;;;24.07;;
5684;SDS011;2865;53.114;9.130;2023-02-16T06:55:57;38.00;;;22.10;;
5684;SDS011;2865;53.114;9.130;2023-02-16T06:58:23;35.17;;;23.03;;
5684;SDS011;2865;53.114;9.130;2023-02-16T07:00:48;36.63;;;23.17;;
5684;SDS011;2865;53.114;9.130;2023-02-16T07:03:13;40.27;;;23.97;;
5684;SDS011;2865;53.114;9.130;2023-02-16T07:05:38;40.63;;;23.93;;
5684;SDS011;2865;53.114;9.130;2023-02-16T07:08:04;39.67;;;24.63;;
5684;SDS011;2865;53.114;9.130;2023-02-16T07:10:29;40.17;;;23.50;;
5684;SDS011;2865;53.114;9.130;2023-02-16T07:12:55;40.73;;;23.80;;
5684;SDS011;2865;53.114;9.130;2023-02-16T07:15:20;39.53;;;24.87;;
5684;SDS011;2865;53.114;9.130;2023-02-16T07:17:45;41.07;;;26.07;;
5684;SDS011;2865;53.114;9.130;2023-02-16T07:20:11;44.30;;;26.13;;
5684;SDS011;2865;53.114;9.130;2023-02-16T07:22:38;43.00;;;25.20;;
5684;SDS011;2865;53.114;9.130;2023-02-16T07:25:04;41.20;;;24.17;;
5684;SDS011;2865;53.114;9.130;2023-02-16T07:27:29;46.40;;;26.33;;
5684;SDS011;2865;53.114;9.130;2023-02-16T07:29:54;39.00;;;23.43;;
5684;SDS011;2865;53.114;9.130;2023-02-16T07:32:20;41.50;;;24.70;;
5684;SDS011;2865;53.114;9.130;2023-02-16T07:34:45;42.03;;;25.37;;
5684;SDS011;2865;53.114;9.130;2023-02-16T07:37:10;41.30;;;26.83;;
5684;SDS011;2865;53.114;9.130;2023-02-16T07:39:36;43.87;;;26.23;;
5684;SDS011;2865;53.114;9.130;2023-02-16T07:42:01;40.57;;;26.10;;
5684;SDS011;2865;53.114;9.130;2023-02-16T07:44:27;43.90;;;26.70;;
5684;SDS011;2865;53.114;9.130;2023-02-16T07:46:52;44.97;;;26.10;;
5684;SDS011;2865;53.114;9.130;2023-02-16T07:49:18;41.73;;;26.43;;
5684;SDS011;2865;53.114;9.130;2023-02-16T07:51:43;43.63;;;26.57;;
5684;SDS011;2865;53.114;9.130;2023-02-16T07:54:09;40.83;;;25.40;;
5684;SDS011;2865;53.114;9.130;2023-02-16T07:56:34;39.63;;;24.63;;
5684;SDS011;2865;53.114;9.130;2023-02-16T07:59:00;41.43;;;25.73;;
5684;SDS011;2865;53.114;9.130;2023-02-16T08:01:25;44.67;;;24.87;;
5684;SDS011;2865;53.114;9.130;2023-02-16T08:03:50;38.90;;;25.03;;
5684;SDS011;2865;53.114;9.130;2023-02-16T08:06:15;38.80;;;24.27;;
5684;SDS011;2865;53.114;9.130;2023-02-16T08:08:41;42.13;;;27.30;;
5684;SDS011;2865;53.114;9.130;2023-02-16T08:11:09;42.10;;;25.90;;
5684;SDS011;2865;53.114;9.130;2023-02-16T08:13:36;37.90;;;25.03;;
5684;SDS011;2865;53.114;9.130;2023-02-16T08:16:01;40.37;;;27.90;;
5684;SDS011;2865;53.114;9.130;2023-02-16T08:18:26;39.93;;;26.73;;
5684;SDS011;2865;53.114;9.130;2023-02-16T08:20:52;40.80;;;27.80;;
5684;SDS011;2865;53.114;9.130;2023-02-16T08:23:18;47.83;;;28.17;;
5684;SDS011;2865;53.114;9.130;2023-02-16T08:25:43;44.60;;;27.57;;
5684;SDS011;2865;53.114;9.130;2023-02-16T08:28:08;44.47;;;25.87;;
5684;SDS011;2865;53.114;9.130;2023-02-16T08:30:33;40.23;;;27.00;;
5684;SDS011;2865;53.114;9.130;2023-02-16T08:32:59;48.30;;;27.90;;
5684;SDS011;2865;53.114;9.130;2023-02-16T08:35:25;45.67;;;26.40;;
5684;SDS011;2865;53.114;9.130;2023-02-16T08:37:50;52.70;;;29.03;;
5684;SDS011;2865;53.114;9.130;2023-02-16T08:40:16;48.93;;;29.17;;
5684;SDS011;2865;53.114;9.130;2023-02-16T08:42:41;39.27;;;25.50;;
5684;SDS011;2865;53.114;9.130;2023-02-16T08:45:07;46.43;;;27.90;;
5684;SDS011;2865;53.114;9.130;2023-02-16T08:47:32;38.73;;;26.20;;
5684;SDS011;2865;53.114;9.130;2023-02-16T08:49:58;47.10;;;26.67;;
5684;SDS011;2865;53.114;9.130;2023-02-16T08:52:23;47.67;;;28.13;;
5684;SDS011;2865;53.114;9.130;2023-02-16T08:54:48;40.93;;;27.00;;
5684;SDS011;2865;53.114;9.130;2023-02-16T08:57:14;42.13;;;26.60;;
5684;SDS011;2865;53.114;9.130;2023-02-16T08:59:39;40.30;;;26.43;;
5684;SDS011;2865;53.114;9.130;2023-02-16T09:02:04;39.10;;;27.33;;
5684;SDS011;2865;53.114;9.130;2023-02-16T09:04:30;45.57;;;28.50;;
5684;SDS011;2865;53.114;9.130;2023-02-16T09:06:55;41.77;;;27.10;;
5684;SDS011;2865;53.114;9.130;2023-02-16T09:09:20;39.60;;;27.00;;
5684;SDS011;2865;53.114;9.130;2023-02-16T09:11:46;42.77;;;24.60;;
5684;SDS011;2865;53.114;9.130;2023-02-16T09:14:11;42.47;;;27.07;;
5684;SDS011;2865;53.114;9.130;2023-02-16T09:16:36;41.00;;;26.47;;
5684;SDS011;2865;53.114;9.130;2023-02-16T09:19:01;39.77;;;26.60;;
5684;SDS011;2865;53.114;9.130;2023-02-16T09:21:27;36.80;;;24.90;;
5684;SDS011;2865;53.114;9.130;2023-02-16T09:23:53;39.10;;;25.70;;
5684;SDS011;2865;53.114;9.130;2023-02-16T09:26:18;37.70;;;24.73;;
5684;SDS011;2865;53.114;9.130;2023-02-16T09:28:43;47.83;;;26.10;;
5684;SDS011;2865;53.114;9.130;2023-02-16T09:31:10;45.03;;;27.10;;
5684;SDS011;2865;53.114;9.130;2023-02-16T09:33:37;46.90;;;26.10;;
5684;SDS011;2865;53.114;9.130;2023-02-16T09:36:04;38.43;;;24.60;;
5684;SDS011;2865;53.114;9.130;2023-02-16T09:38:28;38.63;;;24.90;;
5684;SDS011;2865;53.114;9.130;2023-02-16T09:40:54;41.77;;;28.83;;
5684;SDS011;2865;53.114;9.130;2023-02-16T09:45:57;46.10;;;26.80;;
5684;SDS011;2865;53.114;9.130;2023-02-16T09:48:27;35.53;;;24.00;;
5684;SDS011;2865;53.114;9.130;2023-02-16T09:50:48;38.50;;;25.03;;
5684;SDS011;2865;53.114;9.130;2023-02-16T09:53:19;38.93;;;25.70;;
5684;SDS011;2865;53.114;9.130;2023-02-16T09:55:42;40.87;;;25.10;;
5684;SDS011;2865;53.114;9.130;2023-02-16T09:58:10;39.23;;;25.30;;
5684;SDS011;2865;53.114;9.130;2023-02-16T10:00:48;45.17;;;26.70;;
5684;SDS011;2865;53.114;9.130;2023-02-16T10:03:18;41.37;;;25.80;;
5684;SDS011;2865;53.114;9.130;2023-02-16T10:05:48;38.53;;;26.30;;
5684;SDS011;2865;53.114;9.130;2023-02-16T10:08:12;40.43;;;25.90;;
5684;SDS011;2865;53.114;9.130;2023-02-16T10:10:39;40.13;;;24.93;;
5684;SDS011;2865;53.114;9.130;2023-02-16T10:13:10;35.27;;;24.60;;
5684;SDS011;2865;53.114;9.130;2023-02-16T10:15:32;39.27;;;24.83;;
5684;SDS011;2865;53.114;9.130;2023-02-16T10:17:59;41.10;;;25.67;;
5684;SDS011;2865;53.114;9.130;2023-02-16T10:20:29;38.33;;;27.20;;
5684;SDS011;2865;53.114;9.130;2023-02-16T10:22:59;40.80;;;27.80;;
5684;SDS011;2865;53.114;9.130;2023-02-16T10:25:50;34.93;;;24.40;;
5684;SDS011;2865;53.114;9.130;2023-02-16T10:28:20;45.03;;;26.13;;
5684;SDS011;2865;53.114;9.130;2023-02-16T10:30:49;37.20;;;24.63;;
5684;SDS011;2865;53.114;9.130;2023-02-16T10:33:15;37.50;;;25.60;;
5684;SDS011;2865;53.114;9.130;2023-02-16T10:35:42;43.17;;;26.17;;
5684;SDS011;2865;53.114;9.130;2023-02-16T10:40:54;37.37;;;26.20;;
5684;SDS011;2865;53.114;9.130;2023-02-16T10:43:18;37.37;;;24.40;;
5684;SDS011;2865;53.114;9.130;2023-02-16T10:45:43;38.70;;;26.23;;
5684;SDS011;2865;53.114;9.130;2023-02-16T10:48:08;36.37;;;25.83;;
5684;SDS011;2865;53.114;9.130;2023-02-16T10:50:38;47.17;;;25.13;;
5684;SDS011;2865;53.114;9.130;2023-02-16T10:53:05;40.97;;;26.97;;
5684;SDS011;2865;53.114;9.130;2023-02-16T10:55:28;45.70;;;25.30;;
5684;SDS011;2865;53.114;9.130;2023-02-16T10:57:55;43.27;;;26.73;;
5684;SDS011;2865;53.114;9.130;2023-02-16T11:00:22;38.20;;;25.83;;
5684;SDS011;2865;53.114;9.130;2023-02-16T11:02:46;38.30;;;25.50;;
5684;SDS011;2865;53.114;9.130;2023-02-16T11:05:44;44.87;;;25.50;;
5684;SDS011;2865;53.114;9.130;2023-02-16T11:07:54;36.80;;;25.90;;
5684;SDS011;2865;53.114;9.130;2023-02-16T11:10:20;35.83;;;24.93;;
5684;SDS011;2865;53.114;9.130;2023-02-16T11:12:44;42.43;;;24.00;;
5684;SDS011;2865;53.114;9.130;2023-02-16T11:15:21;44.50;;;27.27;;
5684;SDS011;2865;53.114;9.130;2023-02-16T11:17:49;35.47;;;25.33;;
5684;SDS011;2865;53.114;9.130;2023-02-16T11:20:24;37.80;;;25.50;;
5684;SDS011;2865;53.114;9.130;2023-02-16T11:25:37;39.83;;;25.47;;
5684;SDS011;2865;53.114;9.130;2023-02-16T11:28:03;39.57;;;25.53;;
5684;SDS011;2865;53.114;9.130;2023-02-16T11:30:35;39.70;;;26.73;;
5684;SDS011;2865;53.114;9.130;2023-02-16T11:33:00;36.23;;;26.47;;
5684;SDS011;2865;53.114;9.130;2023-02-16T11:35:24;40.30;;;26.60;;
5684;SDS011;2865;53.114;9.130;2023-02-16T11:37:50;40.43;;;26.13;;
5684;SDS011;2865;53.114;9.130;2023-02-16T11:40:18;38.90;;;24.60;;
5684;SDS011;2865;53.114;9.130;2023-02-16T11:42:48;38.60;;;25.60;;
5684;SDS011;2865;53.114;9.130;2023-02-16T11:47:50;41.23;;;26.20;;
5684;SDS011;2865;53.114;9.130;2023-02-16T11:50:16;38.53;;;24.20;;
5684;SDS011;2865;53.114;9.130;2023-02-16T11:52:43;35.87;;;24.97;;
5684;SDS011;2865;53.114;9.130;2023-02-16T11:55:18;42.13;;;25.60;;
5684;SDS011;2865;53.114;9.130;2023-02-16T11:57:34;43.20;;;27.10;;
5684;SDS011;2865;53.114;9.130;2023-02-16T12:00:00;38.63;;;25.47;;
5684;SDS011;2865;53.114;9.130;2023-02-16T12:05:22;39.80;;;26.97;;
5684;SDS011;2865;53.114;9.130;2023-02-16T12:08:02;41.50;;;25.97;;
5684;SDS011;2865;53.114;9.130;2023-02-16T12:10:27;35.07;;;24.90;;
5684;SDS011;2865;53.114;9.130;2023-02-16T12:12:52;43.83;;;27.17;;
5684;SDS011;2865;53.114;9.130;2023-02-16T12:15:28;43.77;;;27.00;;
5684;SDS011;2865;53.114;9.130;2023-02-16T12:17:55;37.43;;;25.60;;
5684;SDS011;2865;53.114;9.130;2023-02-16T12:20:25;41.47;;;27.40;;
5684;SDS011;2865;53.114;9.130;2023-02-16T12:23:11;39.10;;;26.90;;
5684;SDS011;2865;53.114;9.130;2023-02-16T12:25:36;38.63;;;24.37;;
5684;SDS011;2865;53.114;9.130;2023-02-16T12:28:13;39.47;;;25.77;;
5684;SDS011;2865;53.114;9.130;2023-02-16T12:33:35;41.90;;;26.60;;
5684;SDS011;2865;53.114;9.130;2023-02-16T12:36:21;42.07;;;27.60;;
5684;SDS011;2865;53.114;9.130;2023-02-16T12:38:47;43.47;;;26.33;;
5684;SDS011;2865;53.114;9.130;2023-02-16T12:41:29;42.43;;;27.80;;
5684;SDS011;2865;53.114;9.130;2023-02-16T12:43:52;41.60;;;28.07;;
5684;SDS011;2865;53.114;9.130;2023-02-16T12:46:23;42.83;;;27.27;;
5684;SDS011;2865;53.114;9.130;2023-02-16T12:48:52;40.50;;;27.40;;
5684;SDS011;2865;53.114;9.130;2023-02-16T12:51:17;41.07;;;27.30;;
5684;SDS011;2865;53.114;9.130;2023-02-16T12:53:45;46.83;;;27.87;;
5684;SDS011;2865;53.114;9.130;2023-02-16T12:56:11;41.23;;;27.93;;
5684;SDS011;2865;53.114;9.130;2023-02-16T12:58:35;41.50;;;27.77;;
5684;SDS011;2865;53.114;9.130;2023-02-16T13:01:03;46.47;;;29.00;;
5684;SDS011;2865;53.114;9.130;2023-02-16T13:03:32;48.13;;;27.70;;
5684;SDS011;2865;53.114;9.130;2023-02-16T13:08:38;46.80;;;28.00;;
5684;SDS011;2865;53.114;9.130;2023-02-16T13:11:03;45.23;;;28.80;;
5684;SDS011;2865;53.114;9.130;2023-02-16T13:13:28;42.40;;;27.93;;
5684;SDS011;2865;53.114;9.130;2023-02-16T13:16:05;47.13;;;29.37;;
5684;SDS011;2865;53.114;9.130;2023-02-16T13:18:35;44.03;;;30.00;;
5684;SDS011;2865;53.114;9.130;2023-02-16T13:21:03;44.63;;;27.87;;
5684;SDS011;2865;53.114;9.130;2023-02-16T13:24:03;44.83;;;27.90;;
5684;SDS011;2865;53.114;9.130;2023-02-16T13:26:23;45.20;;;29.13;;
5684;SDS011;2865;53.114;9.130;2023-02-16T13:31:43;47.23;;;28.40;;
5684;SDS011;2865;53.114;9.130;2023-02-16T13:34:14;51.33;;;29.30;;
5684;SDS011;2865;53.114;9.130;2023-02-16T13:39:22;47.67;;;30.17;;
5684;SDS011;2865;53.114;9.130;2023-02-16T13:41:50;43.17;;;30.47;;
5684;SDS011;2865;53.114;9.130;2023-02-16T13:44:39;48.27;;;30.90;;
5684;SDS011;2865;53.114;9.130;2023-02-16T13:47:10;46.13;;;28.60;;
5684;SDS011;2865;53.114;9.130;2023-02-16T13:49:35;48.17;;;29.53;;
5684;SDS011;2865;53.114;9.130;2023-02-16T13:52:00;47.47;;;29.80;;
5684;SDS011;2865;53.114;9.130;2023-02-16T13:54:28;47.93;;;29.50;;
5684;SDS011;2865;53.114;9.130;2023-02-16T13:56:53;39.80;;;27.37;;
5684;SDS011;2865;53.114;9.130;2023-02-16T13:59:56;42.27;;;27.40;;
5684;SDS011;2865;53.114;9.130;2023-02-16T14:02:17;40.87;;;28.77;;
5684;SDS011;2865;53.114;9.130;2023-02-16T14:04:59;42.80;;;27.80;;
5684;SDS011;2865;53.114;9.130;2023-02-16T14:07:30;44.37;;;28.77;;
5684;SDS011;2865;53.114;9.130;2023-02-16T14:09:54;48.10;;;28.40;;
5684;SDS011;2865;53.114;9.130;2023-02-16T14:12:30;41.47;;;28.40;;
5684;SDS011;2865;53.114;9.130;2023-02-16T14:14:57;46.27;;;29.40;;
5684;SDS011;2865;53.114;9.130;2023-02-16T14:17:23;47.00;;;28.90;;
5684;SDS011;2865;53.114;9.130;2023-02-16T14:28:00;42.17;;;28.10;;
5684;SDS011;2865;53.114;9.130;2023-02-16T14:30:29;47.73;;;28.30;;
5684;SDS011;2865;53.114;9.130;2023-02-16T14:35:34;49.67;;;29.57;;
5684;SDS011;2865;53.114;9.130;2023-02-16T14:37:59;55.73;;;28.23;;
5684;SDS011;2865;53.114;9.130;2023-02-16T14:40:39;45.77;;;28.57;;
5684;SDS011;2865;53.114;9.130;2023-02-16T14:43:16;50.37;;;29.70;;
5684;SDS011;2865;53.114;9.130;2023-02-16T14:48:54;45.50;;;28.00;;
5684;SDS011;2865;53.114;9.130;2023-02-16T14:51:38;51.97;;;29.33;;
5684;SDS011;2865;53.114;9.130;2023-02-16T14:54:55;49.20;;;27.60;;
5684;SDS011;2865;53.114;9.130;2023-02-16T14:57:17;44.43;;;30.67;;
5684;SDS011;2865;53.114;9.130;2023-02-16T14:59:58;48.50;;;29.67;;
5684;SDS011;2865;53.114;9.130;2023-02-16T15:02:28;46.00;;;30.57;;
5684;SDS011;2865;53.114;9.130;2023-02-16T15:04:51;47.70;;;28.43;;
5684;SDS011;2865;53.114;9.130;2023-02-16T15:07:16;51.63;;;29.80;;
5684;SDS011;2865;53.114;9.130;2023-02-16T15:09:42;50.67;;;28.87;;
5684;SDS011;2865;53.114;9.130;2023-02-16T15:12:10;47.03;;;29.43;;
5684;SDS011;2865;53.114;9.130;2023-02-16T15:14:42;52.97;;;31.20;;
5684;SDS011;2865;53.114;9.130;2023-02-16T15:17:06;50.40;;;29.90;;
5684;SDS011;2865;53.114;9.130;2023-02-16T15:19:32;50.80;;;30.67;;
5684;SDS011;2865;53.114;9.130;2023-02-16T15:24:32;52.80;;;30.57;;
5684;SDS011;2865;53.114;9.130;2023-02-16T15:26:58;59.37;;;31.97;;
5684;SDS011;2865;53.114;9.130;2023-02-16T15:29:24;54.70;;;30.67;;
5684;SDS011;2865;53.114;9.130;2023-02-16T15:31:48;52.30;;;31.03;;
5684;SDS011;2865;53.114;9.130;2023-02-16T15:34:24;55.57;;;30.37;;
5684;SDS011;2865;53.114;9.130;2023-02-16T15:36:40;56.97;;;31.87;;
5684;SDS011;2865;53.114;9.130;2023-02-16T15:39:05;53.87;;;31.70;;
5684;SDS011;2865;53.114;9.130;2023-02-16T15:41:35;52.03;;;31.50;;